Time;durP1;ratioP1;P1;durP2;ratioP2;P2;SDS_P1;SDS_P2;PMS_P1;PMS_P2;Temp;Humidity;BMP_temperature;BMP_pressure;BME280_temperature;BME280_humidity;BME280_pressure;Samples;Min_cycle;Max_cycle;Signal;HPM_P1;HPM_P2
2021/04/11 00:00:15;;;;;;;2.47;1.60;;;9.90;99.90;;;;;;5033747;28;20040;-72
2021/04/11 00:02:40;;;;;;;3.40;1.70;;;9.90;99.90;;;;;;5033463;28;20518;-72
2021/04/11 00:05:07;;;;;;;1.77;1.67;;;9.90;99.90;;;;;;5032314;28;20032;-73
2021/04/11 00:07:33;;;;;;;1.70;1.60;;;10.00;99.90;;;;;;5032103;28;20029;-72
2021/04/11 00:09:59;;;;;;;3.80;1.73;;;9.90;99.90;;;;;;5032270;28;20032;-72
2021/04/11 00:12:24;;;;;;;2.10;1.55;;;9.90;99.90;;;;;;5033023;28;20087;-71
2021/04/11 00:14:50;;;;;;;4.22;1.77;;;9.90;99.90;;;;;;5031651;28;20033;-72
2021/04/11 00:17:16;;;;;;;2.75;1.65;;;9.90;99.90;;;;;;5032166;28;20076;-72
2021/04/11 00:19:41;;;;;;;3.10;2.05;;;9.80;99.90;;;;;;5032072;28;20022;-72
2021/04/11 00:22:07;;;;;;;2.08;1.45;;;9.80;99.90;;;;;;5029809;28;20064;-71
2021/04/11 00:24:33;;;;;;;2.10;1.60;;;9.70;99.90;;;;;;5031010;28;20021;-72
2021/04/11 00:26:59;;;;;;;2.60;1.70;;;9.70;99.90;;;;;;5032033;28;20045;-72
2021/04/11 00:29:24;;;;;;;1.95;1.70;;;9.60;99.90;;;;;;5031701;28;20036;-72
2021/04/11 00:31:50;;;;;;;3.00;1.50;;;9.50;99.90;;;;;;5031672;28;20063;-71
2021/04/11 00:34:16;;;;;;;2.53;1.67;;;9.50;99.90;;;;;;5029828;28;20444;-72
2021/04/11 00:36:42;;;;;;;2.58;1.50;;;9.50;99.90;;;;;;5031582;28;20025;-71
2021/04/11 00:39:07;;;;;;;4.15;1.70;;;9.50;99.90;;;;;;5031157;28;20021;-72
2021/04/11 00:41:38;;;;;;;1.50;1.25;;;9.50;99.90;;;;;;5031436;28;20034;-71
2021/04/11 00:44:05;;;;;;;2.20;1.35;;;9.50;99.90;;;;;;5030651;28;20109;-72
2021/04/11 00:46:47;;;;;;;1.60;1.50;;;9.60;99.90;;;;;;5031682;28;20022;-72
2021/04/11 00:49:26;;;;;;;5.00;1.88;;;9.60;99.90;;;;;;5031484;28;20129;-72
2021/04/11 00:51:53;;;;;;;2.00;1.50;;;9.70;99.90;;;;;;5029841;28;20029;-72
2021/04/11 00:54:19;;;;;;;1.88;1.40;;;9.60;99.90;;;;;;5029234;28;20376;-72
2021/04/11 00:56:44;;;;;;;2.83;1.42;;;9.60;99.90;;;;;;5031185;28;20108;-72
2021/04/11 00:59:12;;;;;;;2.90;1.63;;;9.60;99.90;;;;;;5031418;28;20488;-71
2021/04/11 01:01:39;;;;;;;1.88;1.60;;;9.50;99.90;;;;;;5031105;28;20123;-72
2021/04/11 01:04:11;;;;;;;1.88;1.35;;;9.50;99.90;;;;;;5030737;28;20475;-71
2021/04/11 01:06:41;;;;;;;4.22;1.58;;;9.50;99.90;;;;;;5031284;28;20089;-70
2021/04/11 01:09:16;;;;;;;2.90;1.25;;;9.30;99.90;;;;;;5031017;28;20941;-71
2021/04/11 01:11:42;;;;;;;2.25;1.48;;;9.30;99.90;;;;;;5031248;28;20021;-70
2021/04/11 01:14:09;;;;;;;2.45;1.20;;;9.20;99.90;;;;;;5030447;28;20022;-72
2021/04/11 01:16:36;;;;;;;1.80;1.42;;;9.30;99.90;;;;;;5030814;28;20017;-71
2021/04/11 01:19:06;;;;;;;4.82;1.55;;;9.20;99.90;;;;;;5030987;28;20518;-70
2021/04/11 01:21:52;;;;;;;1.40;1.30;;;9.10;99.90;;;;;;5030846;28;20396;-72
2021/04/11 01:24:23;;;;;;;2.95;1.45;;;9.20;99.90;;;;;;5030354;28;20025;-71
2021/04/11 01:26:51;;;;;;;2.50;1.30;;;9.10;99.90;;;;;;5030871;28;20036;-70
2021/04/11 01:29:17;;;;;;;1.60;1.20;;;9.10;99.90;;;;;;5030913;28;20047;-71
2021/04/11 01:31:44;;;;;;;1.63;1.40;;;9.10;99.90;;;;;;5032544;28;20100;-71
2021/04/11 01:34:11;;;;;;;3.35;1.73;;;9.20;99.90;;;;;;5033999;28;20026;-71
2021/04/11 01:36:41;;;;;;;2.42;1.40;;;9.20;99.90;;;;;;5034680;28;20025;-71
2021/04/11 01:39:15;;;;;;;5.32;1.75;;;9.30;99.90;;;;;;5034570;28;20068;-71
2021/04/11 01:41:43;;;;;;;2.25;1.45;;;9.40;99.90;;;;;;5034599;28;20427;-71
2021/04/11 01:44:14;;;;;;;1.88;1.45;;;9.40;99.90;;;;;;5033911;28;20017;-71
2021/04/11 01:46:40;;;;;;;3.05;1.35;;;9.40;99.90;;;;;;5034429;28;20021;-72
2021/04/11 01:49:06;;;;;;;2.00;1.20;;;9.40;99.90;;;;;;5034639;28;20022;-72
2021/04/11 01:51:35;;;;;;;3.60;1.45;;;9.60;99.90;;;;;;5034416;28;20059;-71
2021/04/11 01:54:08;;;;;;;4.10;1.40;;;9.50;99.90;;;;;;5033620;28;20365;-71
2021/04/11 01:56:33;;;;;;;2.20;1.48;;;9.50;99.90;;;;;;5034318;28;20029;-71
2021/04/11 01:58:59;;;;;;;1.60;1.50;;;9.60;99.90;;;;;;5034209;28;20080;-71
2021/04/11 02:01:30;;;;;;;4.07;1.65;;;9.50;99.90;;;;;;5034163;28;20515;-72
2021/04/11 02:03:57;;;;;;;2.22;1.30;;;9.60;99.90;;;;;;5033586;28;20071;-71
2021/04/11 02:06:24;;;;;;;4.15;1.65;;;9.60;99.90;;;;;;5033969;28;20034;-72
2021/04/11 02:08:54;;;;;;;3.35;1.55;;;9.60;99.90;;;;;;5034124;28;20025;-71
2021/04/11 02:11:20;;;;;;;1.73;1.58;;;9.50;99.90;;;;;;5033938;28;20021;-72
2021/04/11 02:13:46;;;;;;;1.65;1.33;;;9.50;99.90;;;;;;5033190;28;20021;-71
2021/04/11 02:16:14;;;;;;;3.33;1.17;;;9.50;99.90;;;;;;5032431;28;20369;-72
2021/04/11 02:18:40;;;;;;;3.03;1.50;;;9.50;99.90;;;;;;5034119;28;20021;-69
2021/04/11 02:21:15;;;;;;;2.15;1.40;;;9.40;99.90;;;;;;5033582;28;20017;-72
2021/04/11 02:23:41;;;;;;;2.10;1.67;;;9.60;99.90;;;;;;5048103;23;20045;-72
2021/04/11 02:26:08;;;;;;;4.25;1.60;;;9.50;99.90;;;;;;5027220;28;20025;-72
2021/04/11 02:28:34;;;;;;;1.83;1.60;;;9.60;99.90;;;;;;5030524;28;20037;-73
2021/04/11 02:31:17;;;;;;;4.00;1.65;;;9.60;99.90;;;;;;5023680;28;20034;-71
2021/04/11 02:34:00;;;;;;;3.25;1.48;;;9.60;99.90;;;;;;5013971;28;20479;-72
2021/04/11 02:36:29;;;;;;;1.55;1.30;;;9.60;99.90;;;;;;5014551;28;20061;-72
2021/04/11 02:38:57;;;;;;;1.58;1.45;;;9.60;99.90;;;;;;5015635;28;20033;-73
2021/04/11 02:41:25;;;;;;;3.10;1.52;;;9.60;99.90;;;;;;5015256;28;20022;-72
2021/04/11 02:43:51;;;;;;;1.90;1.45;;;9.50;99.90;;;;;;5013648;28;20057;-71
2021/04/11 02:46:18;;;;;;;2.42;1.60;;;9.60;99.90;;;;;;5014215;28;20065;-72
2021/04/11 02:48:44;;;;;;;2.80;1.30;;;9.50;99.90;;;;;;5014252;28;20171;-72
2021/04/11 02:51:10;;;;;;;1.98;1.50;;;9.60;99.90;;;;;;5013786;28;20025;-72
2021/04/11 02:53:38;;;;;;;2.92;1.85;;;9.60;99.90;;;;;;5012944;28;20022;-71
2021/04/11 02:56:04;;;;;;;1.60;1.40;;;9.60;99.90;;;;;;5014909;28;20040;-72
2021/04/11 02:58:30;;;;;;;2.95;1.67;;;9.70;99.90;;;;;;5014218;28;20108;-72
2021/04/11 03:01:04;;;;;;;3.00;1.77;;;9.80;99.90;;;;;;5032880;28;20101;-71
2021/04/11 03:03:31;;;;;;;1.35;1.25;;;9.80;99.90;;;;;;5033017;28;20088;-71
2021/04/11 03:06:00;;;;;;;1.85;1.55;;;9.70;99.90;;;;;;5033222;28;20026;-72
2021/04/11 03:08:32;;;;;;;2.95;1.65;;;9.80;99.90;;;;;;5033259;28;20040;-72
2021/04/11 03:11:39;;;;;;;2.92;1.48;;;9.90;99.90;;;;;;5033498;28;20073;-72
2021/04/11 03:14:08;;;;;;;3.33;1.67;;;9.80;99.90;;;;;;5032475;28;20076;-72
2021/04/11 03:16:35;;;;;;;2.10;1.80;;;9.80;99.90;;;;;;5034355;28;20036;-72
2021/04/11 03:19:02;;;;;;;1.30;1.20;;;9.80;99.90;;;;;;5034754;28;20021;-72
2021/04/11 03:21:28;;;;;;;3.58;1.23;;;9.70;99.90;;;;;;5033122;28;20040;-71
2021/04/11 03:23:54;;;;;;;3.90;1.52;;;9.80;99.90;;;;;;5032428;28;20029;-72
2021/04/11 03:26:35;;;;;;;2.83;1.30;;;9.70;99.90;;;;;;5033151;28;20033;-71
2021/04/11 03:29:11;;;;;;;3.33;1.42;;;9.80;99.90;;;;;;5017782;28;20068;-72
2021/04/11 03:32:19;;;;;;;2.88;1.63;;;9.80;99.90;;;;;;5012317;28;20387;-72
2021/04/11 03:34:48;;;;;;;2.78;1.73;;;9.60;99.90;;;;;;4978603;28;20049;-71
2021/04/11 03:37:16;;;;;;;3.42;1.50;;;9.70;99.90;;;;;;5011872;28;20468;-70
2021/04/11 03:39:42;;;;;;;3.03;1.60;;;9.60;99.90;;;;;;5012954;28;20529;-72
2021/04/11 03:42:13;;;;;;;3.55;1.60;;;9.50;99.90;;;;;;5012969;28;20022;-72
2021/04/11 03:44:40;;;;;;;3.20;1.58;;;9.50;99.90;;;;;;5012556;28;20053;-72
2021/04/11 03:47:20;;;;;;;3.03;1.60;;;9.60;99.90;;;;;;5012828;28;20029;-72
2021/04/11 03:49:57;;;;;;;1.67;1.50;;;9.60;99.90;;;;;;5012828;28;20030;-72
2021/04/11 03:52:39;;;;;;;2.45;1.50;;;9.80;99.90;;;;;;5011378;28;20022;-71
2021/04/11 03:55:11;;;;;;;1.70;1.50;;;9.80;99.90;;;;;;5011903;28;20022;-72
2021/04/11 03:57:50;;;;;;;4.20;1.77;;;9.70;99.90;;;;;;5012691;28;20100;-70
2021/04/11 04:00:29;;;;;;;2.10;1.30;;;9.80;99.90;;;;;;5012790;28;20030;-71
2021/04/11 04:03:01;;;;;;;2.30;1.67;;;9.60;99.90;;;;;;5012238;28;20026;-71
2021/04/11 04:05:30;;;;;;;1.98;1.77;;;9.60;99.90;;;;;;5026782;28;20022;-71
2021/04/11 04:07:59;;;;;;;2.40;2.03;;;9.70;99.90;;;;;;5032669;28;20033;-72
2021/04/11 04:10:33;;;;;;;5.70;1.63;;;9.70;99.90;;;;;;5030646;28;20025;-73
2021/04/11 04:13:27;;;;;;;4.18;2.05;;;9.60;99.90;;;;;;5032073;28;20025;-71
2021/04/11 04:16:17;;;;;;;2.83;1.60;;;9.70;99.90;;;;;;5032633;28;20056;-73
2021/04/11 04:19:06;;;;;;;1.60;1.30;;;9.70;99.90;;;;;;5032788;28;20101;-72
2021/04/11 04:22:04;;;;;;;2.45;2.10;;;9.70;99.90;;;;;;5032188;28;20079;-71
2021/04/11 04:25:08;;;;;;;2.65;1.25;;;9.60;99.90;;;;;;5032948;28;20060;-72
2021/04/11 04:27:55;;;;;;;1.58;1.33;;;9.60;99.90;;;;;;5018157;28;20092;-72
2021/04/11 04:30:49;;;;;;;4.10;1.70;;;9.50;99.90;;;;;;5019604;28;20029;-72
2021/04/11 04:33:46;;;;;;;2.35;1.83;;;9.60;99.90;;;;;;5015244;28;20053;-71
2021/04/11 04:36:44;;;;;;;3.30;2.28;;;9.60;99.90;;;;;;5014368;28;20021;-72
2021/04/11 04:39:52;;;;;;;4.13;2.60;;;9.60;99.90;;;;;;5012225;28;20030;-71
2021/04/11 04:42:26;;;;;;;2.53;2.10;;;9.60;99.90;;;;;;4968187;28;20483;-70
2021/04/11 04:45:14;;;;;;;4.65;2.47;;;9.60;99.90;;;;;;5011682;28;20034;-70
2021/04/11 04:47:44;;;;;;;3.38;2.33;;;9.70;99.90;;;;;;4983772;28;20427;-71
2021/04/11 04:50:25;;;;;;;6.18;2.53;;;9.70;99.90;;;;;;5013433;28;20061;-70
2021/04/11 04:53:20;;;;;;;2.42;2.05;;;9.80;99.90;;;;;;5031306;28;20120;-71
2021/04/11 04:55:52;;;;;;;2.45;2.20;;;9.60;99.90;;;;;;5016104;28;20046;-72
2021/04/11 04:58:24;;;;;;;4.68;2.65;;;9.70;99.90;;;;;;5011871;28;20399;-71
2021/04/11 05:00:57;;;;;;;3.58;1.90;;;9.50;99.90;;;;;;5010744;28;20419;-71
2021/04/11 05:03:47;;;;;;;2.10;1.90;;;9.50;99.90;;;;;;5011449;28;20030;-71
2021/04/11 05:06:21;;;;;;;2.85;2.20;;;9.40;99.90;;;;;;5012918;28;20022;-71
2021/04/11 05:09:04;;;;;;;6.45;2.00;;;9.40;99.90;;;;;;5016020;28;20061;-74
2021/04/11 05:11:45;;;;;;;2.65;2.25;;;9.60;99.90;;;;;;5014799;28;20125;-71
2021/04/11 05:14:20;;;;;;;2.40;2.20;;;9.70;99.90;;;;;;5015461;28;20029;-72
2021/04/11 05:16:53;;;;;;;5.22;2.00;;;9.60;99.90;;;;;;5014644;28;20519;-71
2021/04/11 05:19:35;;;;;;;2.22;2.08;;;9.60;99.90;;;;;;5016052;28;20365;-71
2021/04/11 05:22:10;;;;;;;3.22;2.10;;;9.60;99.90;;;;;;5014775;28;20137;-71
2021/04/11 05:24:42;;;;;;;5.60;2.42;;;9.60;99.90;;;;;;5015385;28;20080;-70
2021/04/11 05:27:20;;;;;;;2.50;2.30;;;9.70;99.90;;;;;;5017571;28;20034;-72
2021/04/11 05:29:53;;;;;;;3.17;2.08;;;9.80;99.90;;;;;;4997776;28;20515;-71
2021/04/11 05:32:20;;;;;;;3.17;2.30;;;9.90;99.90;;;;;;4997660;28;20030;-71
2021/04/11 05:34:46;;;;;;;3.03;2.50;;;9.90;99.90;;;;;;5017573;28;20029;-71
2021/04/11 05:37:14;;;;;;;4.88;2.00;;;9.90;99.90;;;;;;5037560;28;20017;-71
2021/04/11 05:40:02;;;;;;;4.25;2.10;;;9.90;99.90;;;;;;5036778;28;20021;-71
2021/04/11 05:42:55;;;;;;;2.38;1.95;;;9.80;99.90;;;;;;5037489;28;20018;-71
2021/04/11 05:45:55;;;;;;;3.80;1.80;;;9.80;99.90;;;;;;5029195;28;20099;-72
2021/04/11 05:48:33;;;;;;;2.60;1.83;;;9.80;99.90;;;;;;5003968;28;20453;-73
2021/04/11 05:51:01;;;;;;;2.17;1.80;;;9.90;99.90;;;;;;5013888;28;20117;-74
2021/04/11 05:53:48;;;;;;;4.05;1.70;;;10.10;99.90;;;;;;5013277;28;20029;-72
2021/04/11 05:56:38;;;;;;;2.10;1.67;;;10.20;99.90;;;;;;5012554;28;20038;-74
2021/04/11 05:59:18;;;;;;;6.28;2.28;;;10.30;99.90;;;;;;5013235;28;20145;-77
2021/04/11 06:01:53;;;;;;;6.25;3.63;;;10.40;99.90;;;;;;5013168;28;20640;-74
2021/04/11 06:04:29;;;;;;;6.70;3.40;;;10.50;99.90;;;;;;5012285;28;20488;-75
2021/04/11 06:07:12;;;;;;;6.88;4.38;;;10.60;99.90;;;;;;5014036;28;20472;-75
2021/04/11 06:10:01;;;;;;;9.02;6.50;;;10.70;99.90;;;;;;5014058;28;20140;-74
2021/04/11 06:12:32;;;;;;;11.55;6.30;;;10.70;99.90;;;;;;5003970;28;20479;-75
2021/04/11 06:15:25;;;;;;;16.42;9.85;;;10.60;99.90;;;;;;5012674;28;20450;-74
2021/04/11 06:17:52;;;;;;;13.48;7.97;;;10.50;99.90;;;;;;5005140;28;20033;-77
2021/04/11 06:20:19;;;;;;;9.07;5.75;;;10.50;99.90;;;;;;5015084;28;20377;-75
2021/04/11 06:22:57;;;;;;;6.20;4.43;;;10.70;99.90;;;;;;5015295;28;20587;-76
2021/04/11 06:25:36;;;;;;;5.20;4.00;;;10.80;99.90;;;;;;5012949;28;20092;-71
2021/04/11 06:28:27;;;;;;;11.13;5.57;;;11.00;99.90;;;;;;5014777;28;20322;-72
2021/04/11 06:31:03;;;;;;;9.07;5.60;;;11.00;99.90;;;;;;5004005;28;20050;-74
2021/04/11 06:33:34;;;;;;;5.45;3.95;;;11.20;99.90;;;;;;5013950;28;20025;-73
2021/04/11 06:36:10;;;;;;;5.22;4.20;;;11.40;99.90;;;;;;5016294;28;20026;-73
2021/04/11 06:38:44;;;;;;;6.13;4.60;;;11.60;99.90;;;;;;5013205;28;20449;-73
2021/04/11 06:41:46;;;;;;;8.98;3.55;;;11.70;99.90;;;;;;5015028;28;20032;-71
2021/04/11 06:44:50;;;;;;;4.50;3.20;;;11.90;99.90;;;;;;4991698;28;20041;-72
2021/04/11 06:47:40;;;;;;;3.47;2.50;;;12.20;99.90;;;;;;5016027;28;20030;-73
2021/04/11 06:50:38;;;;;;;3.83;2.75;;;12.20;99.90;;;;;;5014744;28;20028;-73
2021/04/11 06:53:37;;;;;;;5.78;2.67;;;12.30;99.90;;;;;;5013352;28;20099;-73
2021/04/11 06:56:41;;;;;;;4.55;2.67;;;12.20;99.90;;;;;;5013747;28;20079;-72
2021/04/11 06:59:36;;;;;;;3.78;2.45;;;12.20;99.90;;;;;;5011621;28;20029;-72
2021/04/11 07:02:33;;;;;;;4.70;2.70;;;12.10;99.90;;;;;;5004807;28;20049;-72
2021/04/11 07:05:14;;;;;;;7.18;3.17;;;12.20;99.90;;;;;;5013815;28;20506;-71
2021/04/11 07:08:05;;;;;;;4.93;3.17;;;12.20;99.90;;;;;;5015985;28;20403;-71
2021/04/11 07:10:41;;;;;;;5.90;3.45;;;12.30;99.90;;;;;;5014097;28;20040;-71
2021/04/11 07:13:35;;;;;;;5.95;3.53;;;12.00;99.90;;;;;;5013050;28;20221;-72
2021/04/11 07:16:04;;;;;;;3.45;2.97;;;11.90;99.90;;;;;;5014412;28;20033;-71
2021/04/11 07:18:42;;;;;;;6.63;3.00;;;11.70;99.90;;;;;;5015109;28;20484;-71
2021/04/11 07:21:34;;;;;;;3.45;3.05;;;11.70;99.90;;;;;;5014381;28;20200;-73
2021/04/11 07:24:21;;;;;;;4.25;2.90;;;12.00;99.90;;;;;;5012099;28;20092;-72
2021/04/11 07:27:14;;;;;;;2.75;2.45;;;12.30;99.90;;;;;;5012977;28;20045;-73
2021/04/11 07:30:12;;;;;;;3.80;2.78;;;12.60;99.90;;;;;;4992779;28;20054;-74
2021/04/11 07:33:01;;;;;;;9.90;3.15;;;12.80;99.90;;;;;;4993449;28;20022;-75
2021/04/11 07:35:46;;;;;;;3.33;3.03;;;13.00;99.90;;;;;;5012302;28;20412;-74
2021/04/11 07:38:21;;;;;;;3.50;2.72;;;13.20;99.90;;;;;;5011241;28;20070;-77
2021/04/11 07:40:58;;;;;;;5.75;2.70;;;13.30;99.90;;;;;;5012665;28;20033;-75
2021/04/11 07:43:40;;;;;;;4.68;2.40;;;13.20;99.90;;;;;;5026657;28;20387;-75
2021/04/11 07:46:08;;;;;;;4.47;2.67;;;13.10;99.90;;;;;;5032813;28;20040;-74
2021/04/11 07:48:53;;;;;;;4.25;2.78;;;13.30;99.90;;;;;;5030926;28;20034;-73
2021/04/11 07:51:46;;;;;;;5.78;2.53;;;13.50;99.90;;;;;;5031064;28;20557;-73
2021/04/11 07:54:30;;;;;;;2.55;2.13;;;13.60;99.90;;;;;;5032007;28;20037;-73
2021/04/11 07:57:16;;;;;;;4.35;1.63;;;13.70;99.90;;;;;;5031528;28;20116;-73
2021/04/11 08:00:04;;;;;;;1.30;1.20;;;14.00;99.90;;;;;;4993490;28;20599;-74
2021/04/11 08:03:02;;;;;;;2.95;1.77;;;14.30;99.90;;;;;;4998123;28;20030;-74
2021/04/11 08:05:59;;;;;;;3.25;1.35;;;14.60;99.90;;;;;;5012794;28;20381;-73
2021/04/11 08:08:39;;;;;;;4.28;1.92;;;15.10;99.90;;;;;;5012824;28;20038;-73
2021/04/11 08:11:32;;;;;;;1.77;1.67;;;15.10;99.90;;;;;;5012803;28;20029;-73
2021/04/11 08:14:32;;;;;;;1.90;1.65;;;15.10;99.80;;;;;;5030903;28;20029;-74
2021/04/11 08:17:00;;;;;;;2.08;1.80;;;14.90;99.90;;;;;;5032160;28;20120;-73
2021/04/11 08:20:14;;;;;;;2.28;1.70;;;15.20;99.90;;;;;;5024714;28;20049;-72
2021/04/11 08:22:50;;;;;;;2.42;1.20;;;15.50;99.80;;;;;;4992291;28;20046;-74
2021/04/11 08:25:31;;;;;;;1.85;1.35;;;15.90;99.20;;;;;;5016589;28;20152;-73
2021/04/11 08:28:25;;;;;;;4.43;1.33;;;16.30;98.10;;;;;;5020191;28;20042;-74
2021/04/11 08:30:53;;;;;;;3.85;1.58;;;16.30;97.00;;;;;;5023535;28;20048;-74
2021/04/11 08:33:22;;;;;;;2.67;1.55;;;16.40;96.80;;;;;;5024009;28;20379;-75
2021/04/11 08:36:09;;;;;;;2.22;1.20;;;16.50;96.60;;;;;;5019935;28;20040;-75
2021/04/11 08:39:02;;;;;;;2.55;1.35;;;16.50;96.20;;;;;;5026737;28;20057;-74
2021/04/11 08:41:41;;;;;;;2.72;1.40;;;16.10;96.50;;;;;;4997719;28;20055;-72
2021/04/11 08:44:25;;;;;;;2.30;1.25;;;16.00;96.60;;;;;;5021254;28;20033;-72
2021/04/11 08:47:00;;;;;;;3.97;1.30;;;15.70;95.60;;;;;;5027739;28;20021;-73
2021/04/11 08:49:31;;;;;;;2.10;1.50;;;15.50;96.50;;;;;;5017570;28;20093;-74
2021/04/11 08:52:15;;;;;;;4.38;1.52;;;15.70;97.00;;;;;;5005946;28;20018;-74
2021/04/11 08:54:47;;;;;;;2.75;1.10;;;15.60;96.00;;;;;;5005346;28;20042;-74
2021/04/11 08:57:34;;;;;;;;;;;15.50;96.70;;;;;;5011232;28;20443;-74
2021/04/11 09:00:22;;;;;;;1.88;1.25;;;15.40;96.60;;;;;;5011147;28;19906;-74
2021/04/11 09:03:07;;;;;;;7.43;5.00;;;15.40;97.30;;;;;;4991674;28;20023;-73
2021/04/11 09:06:07;;;;;;;4.53;3.78;;;15.40;96.80;;;;;;5011577;28;20036;-73
2021/04/11 09:08:35;;;;;;;4.13;2.15;;;15.60;96.90;;;;;;5011005;28;20105;-73
2021/04/11 09:11:46;;;;;;;2.22;1.90;;;15.80;96.10;;;;;;5011003;28;20388;-73
2021/04/11 09:14:56;;;;;;;3.08;1.50;;;15.90;95.60;;;;;;4988577;28;20034;-74
2021/04/11 09:17:35;;;;;;;3.30;1.70;;;15.80;95.20;;;;;;4974501;28;20128;-74
2021/04/11 09:20:26;;;;;;;5.40;1.60;;;16.10;94.80;;;;;;5010457;28;20018;-74
2021/04/11 09:23:20;;;;;;;1.83;1.27;;;16.40;94.40;;;;;;5009212;28;20038;-74
2021/04/11 09:26:19;;;;;;;3.30;1.30;;;16.00;93.40;;;;;;5011172;28;20399;-75
2021/04/11 09:29:10;;;;;;;4.43;1.20;;;15.90;93.80;;;;;;4999883;28;20038;-75
2021/04/11 09:31:55;;;;;;;3.38;1.55;;;16.40;93.20;;;;;;5010363;28;20408;-75
2021/04/11 09:34:25;;;;;;;1.25;1.15;;;16.80;93.60;;;;;;5010942;28;20500;-73
2021/04/11 09:37:17;;;;;;;2.97;1.25;;;17.20;92.80;;;;;;5013342;28;20022;-75
2021/04/11 09:40:07;;;;;;;6.88;1.95;;;17.70;93.40;;;;;;5041020;28;20021;-74
2021/04/11 09:42:56;;;;;;;3.42;1.50;;;18.00;91.00;;;;;;5019405;28;20026;-74
2021/04/11 09:45:40;;;;;;;3.83;1.88;;;18.00;90.10;;;;;;4982016;28;20044;-74
2021/04/11 09:48:32;;;;;;;5.15;2.20;;;18.20;88.40;;;;;;5012120;28;20037;-74
2021/04/11 09:51:33;;;;;;;2.28;1.70;;;18.40;89.60;;;;;;5011342;28;20103;-74
2021/04/11 09:54:20;;;;;;;3.13;1.38;;;18.70;88.50;;;;;;4999750;28;20034;-75
2021/04/11 09:57:01;;;;;;;3.33;1.60;;;19.30;87.00;;;;;;5014935;28;20222;-73
2021/04/11 09:59:33;;;;;;;1.90;1.45;;;20.00;83.90;;;;;;5014817;28;20117;-74
2021/04/11 10:02:03;;;;;;;2.08;1.30;;;20.50;81.90;;;;;;5015087;28;20164;-74
2021/04/11 10:04:38;;;;;;;3.45;1.40;;;21.00;79.50;;;;;;5013592;28;20438;-74
2021/04/11 10:07:20;;;;;;;1.92;1.40;;;21.80;76.60;;;;;;5014855;28;20028;-74
2021/04/11 10:10:05;;;;;;;2.25;1.42;;;21.30;75.00;;;;;;5031230;28;20029;-73
2021/04/11 10:12:43;;;;;;;1.40;1.30;;;22.20;74.40;;;;;;5034250;28;20025;-73
2021/04/11 10:15:28;;;;;;;4.45;1.40;;;22.30;71.20;;;;;;5033079;28;20555;-74
2021/04/11 10:18:32;;;;;;;1.95;1.33;;;21.70;70.60;;;;;;5033691;28;20022;-73
2021/04/11 10:21:09;;;;;;;4.45;1.52;;;21.90;70.50;;;;;;5033849;28;20499;-73
2021/04/11 10:23:55;;;;;;;2.78;1.20;;;21.90;68.40;;;;;;5032914;28;20044;-73
2021/04/11 10:26:44;;;;;;;2.40;1.27;;;21.50;70.50;;;;;;5033227;28;20076;-73
2021/04/11 10:29:24;;;;;;;3.13;1.38;;;21.40;70.30;;;;;;5009198;28;20038;-73
2021/04/11 10:32:08;;;;;;;2.50;1.70;;;20.80;70.40;;;;;;5013937;28;20026;-73
2021/04/11 10:34:46;;;;;;;2.83;1.50;;;21.00;73.50;;;;;;5011803;28;20451;-73
2021/04/11 10:37:21;;;;;;;2.38;1.33;;;21.10;70.80;;;;;;5012692;28;20022;-72
2021/04/11 10:40:19;;;;;;;3.83;1.95;;;21.80;69.30;;;;;;5014703;28;20034;-74
2021/04/11 10:43:03;;;;;;;1.52;1.42;;;20.70;68.10;;;;;;5013174;28;20431;-73
2021/04/11 10:45:35;;;;;;;2.72;1.27;;;20.10;70.20;;;;;;5013674;28;20044;-73
2021/04/11 10:48:33;;;;;;;1.50;1.20;;;20.00;69.70;;;;;;5012558;28;20040;-73
2021/04/11 10:51:23;;;;;;;1.60;0.90;;;20.40;72.60;;;;;;5031057;28;20044;-72
2021/04/11 10:54:13;;;;;;;1.00;0.82;;;20.30;72.60;;;;;;5032684;28;20192;-72
2021/04/11 10:57:06;;;;;;;1.80;1.13;;;20.50;71.20;;;;;;5032913;28;20030;-72
2021/04/11 10:59:58;;;;;;;2.00;1.20;;;20.20;70.30;;;;;;5027326;28;20017;-73
2021/04/11 11:02:30;;;;;;;2.78;1.27;;;20.10;72.00;;;;;;5030772;28;20442;-73
2021/04/11 11:05:33;;;;;;;1.98;1.15;;;20.10;70.60;;;;;;5008642;28;20096;-73
2021/04/11 11:08:08;;;;;;;2.97;1.20;;;20.20;70.60;;;;;;5013821;28;20153;-71
2021/04/11 11:10:45;;;;;;;3.58;1.30;;;20.40;70.60;;;;;;5028429;28;20037;-72
2021/04/11 11:13:37;;;;;;;2.97;1.30;;;19.70;69.90;;;;;;5012871;28;20030;-72
2021/04/11 11:16:22;;;;;;;0.98;0.98;;;19.50;72.10;;;;;;5001156;28;20109;-72
2021/04/11 11:19:19;;;;;;;2.33;0.88;;;19.50;70.60;;;;;;5013674;28;20026;-73
2021/04/11 11:21:58;;;;;;;4.25;1.30;;;19.50;71.80;;;;;;5013181;28;20040;-73
2021/04/11 11:24:48;;;;;;;1.52;1.35;;;19.80;71.50;;;;;;5012402;28;20057;-72
2021/04/11 11:27:32;;;;;;;2.67;0.95;;;19.70;70.70;;;;;;5013407;28;20026;-72
2021/04/11 11:30:34;;;;;;;3.20;0.80;;;19.60;69.90;;;;;;5029629;28;20044;-72
2021/04/11 11:33:22;;;;;;;1.95;0.75;;;21.20;67.40;;;;;;4955422;28;20023;-72
2021/04/11 11:36:08;;;;;;;1.27;0.80;;;22.00;62.80;;;;;;5029608;28;20044;-72
2021/04/11 11:38:42;;;;;;;1.50;0.50;;;21.90;61.50;;;;;;5033050;28;20018;-75
2021/04/11 11:41:17;;;;;;;1.02;0.60;;;22.70;61.90;;;;;;5034090;28;20029;-76
2021/04/11 11:43:53;;;;;;;1.50;0.75;;;21.70;60.90;;;;;;5033658;28;20384;-73
2021/04/11 11:46:42;;;;;;;1.02;0.90;;;21.00;68.90;;;;;;5031320;28;20044;-71
2021/04/11 11:49:11;;;;;;;1.80;0.90;;;20.60;64.20;;;;;;5034008;28;20104;-74
2021/04/11 11:52:01;;;;;;;1.83;1.00;;;20.90;70.70;;;;;;5038221;28;20025;-76
2021/04/11 11:54:41;;;;;;;1.80;1.20;;;21.90;63.90;;;;;;5034495;28;20026;-73
2021/04/11 11:57:32;;;;;;;1.67;0.80;;;23.00;60.80;;;;;;5028400;28;20120;-73
2021/04/11 12:00:08;;;;;;;0.77;0.68;;;24.30;58.30;;;;;;4991690;28;20562;-72
2021/04/11 12:02:59;;;;;;;1.45;0.80;;;24.10;57.60;;;;;;4993249;28;20041;-74
2021/04/11 12:05:39;;;;;;;1.17;0.80;;;24.70;56.40;;;;;;4992942;28;20029;-73
2021/04/11 12:08:26;;;;;;;0.80;0.80;;;25.20;58.20;;;;;;4993383;28;20401;-73
2021/04/11 12:11:00;;;;;;;1.77;0.90;;;23.50;56.40;;;;;;4995220;28;20537;-73
2021/04/11 12:14:01;;;;;;;2.03;1.10;;;22.60;59.50;;;;;;4995817;28;20030;-75
2021/04/11 12:16:35;;;;;;;1.42;0.90;;;23.10;58.80;;;;;;4990790;28;20045;-73
2021/04/11 12:19:12;;;;;;;0.90;0.90;;;25.50;55.30;;;;;;5014572;28;20032;-73
2021/04/11 12:21:47;;;;;;;1.00;0.90;;;26.60;55.00;;;;;;5013581;28;20033;-73
2021/04/11 12:24:42;;;;;;;2.08;0.85;;;24.20;55.20;;;;;;5011915;28;20025;-72
2021/04/11 12:27:10;;;;;;;2.35;0.80;;;25.00;54.70;;;;;;5001894;28;20554;-72
2021/04/11 12:29:46;;;;;;;4.88;0.93;;;23.90;56.90;;;;;;4993186;28;20113;-70
2021/04/11 12:32:28;;;;;;;1.10;0.98;;;23.00;57.10;;;;;;5008033;28;20026;-70
2021/04/11 12:34:56;;;;;;;1.52;0.90;;;22.90;58.40;;;;;;5011791;28;20030;-69
2021/04/11 12:37:33;;;;;;;1.55;0.80;;;21.90;60.40;;;;;;5009199;28;20029;-72
2021/04/11 12:40:11;;;;;;;5.15;1.40;;;22.10;59.80;;;;;;5011328;28;20061;-72
2021/04/11 12:42:55;;;;;;;3.42;1.10;;;21.40;61.70;;;;;;5010533;28;20061;-71
2021/04/11 12:45:26;;;;;;;2.28;0.80;;;21.00;62.90;;;;;;5012103;28;20022;-72
2021/04/11 12:47:56;;;;;;;2.60;1.00;;;21.60;62.60;;;;;;5011887;28;20033;-71
2021/04/11 12:50:34;;;;;;;1.27;0.73;;;22.10;60.10;;;;;;5012309;28;20484;-72
2021/04/11 12:53:18;;;;;;;0.95;0.73;;;23.20;59.50;;;;;;5011523;28;20057;-72
2021/04/11 12:55:54;;;;;;;0.95;0.88;;;23.40;57.00;;;;;;5011780;28;20073;-73
2021/04/11 12:58:46;;;;;;;1.50;0.80;;;22.60;58.40;;;;;;5011722;28;20121;-71
2021/04/11 13:01:12;;;;;;;1.58;1.25;;;21.60;60.70;;;;;;5007523;28;20530;-71
2021/04/11 13:03:44;;;;;;;1.90;0.90;;;21.30;62.30;;;;;;5026278;28;20030;-71
2021/04/11 13:06:45;;;;;;;2.67;0.93;;;21.20;61.90;;;;;;5012485;28;20362;-72
2021/04/11 13:09:20;;;;;;;1.10;1.00;;;20.80;63.10;;;;;;5003024;28;20045;-72
2021/04/11 13:12:01;;;;;;;1.02;0.70;;;21.20;62.00;;;;;;5011436;28;20108;-71
2021/04/11 13:14:29;;;;;;;2.28;0.95;;;21.90;62.40;;;;;;5010921;28;20034;-72
2021/04/11 13:17:06;;;;;;;0.98;0.70;;;22.30;61.20;;;;;;5010817;28;20113;-71
2021/04/11 13:19:36;;;;;;;0.98;0.80;;;23.30;60.80;;;;;;5011809;28;20068;-72
2021/04/11 13:22:36;;;;;;;1.08;0.65;;;23.60;57.80;;;;;;5026414;28;20076;-72
2021/04/11 13:25:08;;;;;;;1.13;0.60;;;23.10;58.90;;;;;;5010644;28;20033;-71
2021/04/11 13:27:53;;;;;;;1.60;1.00;;;22.90;59.40;;;;;;5012832;28;20026;-73
2021/04/11 13:30:28;;;;;;;1.05;0.80;;;22.90;60.10;;;;;;5023097;28;20032;-71
2021/04/11 13:33:05;;;;;;;2.58;0.75;;;22.40;61.50;;;;;;5034339;28;20117;-71
2021/04/11 13:35:57;;;;;;;1.20;0.75;;;21.90;62.30;;;;;;5035160;28;20424;-71
2021/04/11 13:38:28;;;;;;;1.60;0.80;;;21.50;63.80;;;;;;5035112;28;20025;-71
2021/04/11 13:41:24;;;;;;;1.45;1.00;;;21.20;63.90;;;;;;5034648;28;20018;-71
2021/04/11 13:44:14;;;;;;;3.80;0.70;;;22.80;64.60;;;;;;4994553;28;20030;-72
2021/04/11 13:46:46;;;;;;;1.77;0.55;;;26.00;57.00;;;;;;4995766;28;20404;-72
2021/04/11 13:49:28;;;;;;;0.65;0.55;;;26.70;53.30;;;;;;4996415;28;20110;-72
2021/04/11 13:52:27;;;;;;;1.45;0.75;;;24.40;55.40;;;;;;5002114;28;20032;-71